createdAt,value
2023-02-19T00:00:14.865Z,12.43
2023-02-19T00:00:47.588Z,9.45
2023-02-19T00:01:23.207Z,9.85
2023-02-19T00:01:37.958Z,10.48
2023-02-19T00:01:52.536Z,12.13
2023-02-19T00:02:05.483Z,12.25
2023-02-19T00:02:19.516Z,12.52
2023-02-19T00:02:32.626Z,12.82
2023-02-19T00:02:48.428Z,12.27
2023-02-19T00:03:02.566Z,10.95
2023-02-19T00:03:15.502Z,11.98
2023-02-19T00:03:28.999Z,10.88
2023-02-19T00:03:42.985Z,9.48
2023-02-19T00:03:59.147Z,11.70
2023-02-19T00:04:14.278Z,13.93
2023-02-19T00:04:27.296Z,11.52
2023-02-19T00:04:40.524Z,10.40
2023-02-19T00:04:53.550Z,9.52
2023-02-19T00:05:06.610Z,8.85
2023-02-19T00:05:19.918Z,9.40
2023-02-19T00:05:36.381Z,12.02
2023-02-19T00:05:49.377Z,11.85
2023-02-19T00:06:03.045Z,10.52
2023-02-19T00:06:16.289Z,10.75
2023-02-19T00:06:31.646Z,11.82
2023-02-19T00:06:47.094Z,12.05
2023-02-19T00:07:00.008Z,10.77
2023-02-19T00:07:13.198Z,10.48
2023-02-19T00:07:26.140Z,11.00
2023-02-19T00:07:39.094Z,11.25
2023-02-19T00:07:52.041Z,14.43
2023-02-19T00:08:05.054Z,14.30
2023-02-19T00:08:17.643Z,11.88
2023-02-19T00:08:32.109Z,9.48
2023-02-19T00:08:45.378Z,9.32
2023-02-19T00:08:59.005Z,11.52
2023-02-19T00:09:13.070Z,11.82
2023-02-19T00:09:26.321Z,10.00
2023-02-19T00:09:40.446Z,10.43
2023-02-19T00:09:53.406Z,11.18
2023-02-19T00:10:06.988Z,9.45
2023-02-19T00:10:20.037Z,9.30
2023-02-19T00:10:33.051Z,9.50
2023-02-19T00:10:46.026Z,8.77
2023-02-19T00:11:02.341Z,9.65
2023-02-19T00:11:17.601Z,12.23
2023-02-19T00:11:33.123Z,12.30
2023-02-19T00:11:46.649Z,11.70
2023-02-19T00:11:59.662Z,10.07
2023-02-19T00:12:12.690Z,9.65
2023-02-19T00:12:25.817Z,11.70
2023-02-19T00:12:39.691Z,11.27
2023-02-19T00:12:52.677Z,9.38
2023-02-19T00:13:05.598Z,10.18
2023-02-19T00:13:19.992Z,10.63
2023-02-19T00:13:37.075Z,10.35
2023-02-19T00:13:52.328Z,11.15
2023-02-19T00:14:07.207Z,9.93
2023-02-19T00:14:21.844Z,8.23
2023-02-19T00:14:34.783Z,8.77
2023-02-19T00:14:47.765Z,8.82
2023-02-19T00:15:00.694Z,9.18
2023-02-19T00:15:13.888Z,10.55
2023-02-19T00:15:26.822Z,11.70
2023-02-19T00:15:40.951Z,11.20
2023-02-19T00:15:53.967Z,9.10
2023-02-19T00:16:08.869Z,8.45
2023-02-19T00:16:24.071Z,8.38
2023-02-19T00:16:38.574Z,9.75
2023-02-19T00:16:52.564Z,9.70
2023-02-19T00:17:05.498Z,9.80
2023-02-19T00:17:18.483Z,10.38
2023-02-19T00:17:31.830Z,10.38
2023-02-19T00:17:44.951Z,9.43
2023-02-19T00:17:57.944Z,9.98
2023-02-19T00:18:10.769Z,10.55
2023-02-19T00:18:23.862Z,11.10
2023-02-19T00:18:38.147Z,11.23
2023-02-19T00:18:51.601Z,10.15
2023-02-19T00:19:06.935Z,9.88
2023-02-19T00:19:21.816Z,9.88
2023-02-19T00:19:34.741Z,9.55
2023-02-19T00:19:47.630Z,10.48
2023-02-19T00:20:01.690Z,10.13
2023-02-19T00:20:14.800Z,8.23
2023-02-19T00:20:27.964Z,8.90
2023-02-19T00:20:41.011Z,9.07
2023-02-19T00:20:57.086Z,10.98
2023-02-19T00:21:10.595Z,10.48
2023-02-19T00:21:25.765Z,10.27
2023-02-19T00:21:38.940Z,13.75
2023-02-19T00:21:52.916Z,13.80
2023-02-19T00:22:10.413Z,11.55
2023-02-19T00:22:23.732Z,10.27
2023-02-19T00:22:36.769Z,9.75
2023-02-19T00:22:49.832Z,10.48
2023-02-19T00:23:03.821Z,11.40
2023-02-19T00:23:17.171Z,11.93
2023-02-19T00:23:30.472Z,12.13
2023-02-19T00:23:43.596Z,12.07
2023-02-19T00:23:59.194Z,11.57
2023-02-19T00:24:14.161Z,13.48
2023-02-19T00:24:28.075Z,15.75
2023-02-19T00:24:41.028Z,18.75
2023-02-19T00:24:54.157Z,18.40
2023-02-19T00:25:07.319Z,16.42
2023-02-19T00:25:20.371Z,18.08
2023-02-19T00:25:37.018Z,18.73
2023-02-19T00:25:50.066Z,17.65
2023-02-19T00:26:16.204Z,17.52
2023-02-19T00:26:32.792Z,18.63
2023-02-19T00:26:46.904Z,16.17
2023-02-19T00:27:00.222Z,15.82
2023-02-19T00:27:13.237Z,17.80
2023-02-19T00:27:26.233Z,19.27
2023-02-19T00:27:39.265Z,20.67
2023-02-19T00:27:52.234Z,21.50
2023-02-19T00:28:05.480Z,22.65
2023-02-19T00:28:20.907Z,20.85
2023-02-19T00:28:33.875Z,17.73
2023-02-19T00:28:47.837Z,18.17
2023-02-19T00:29:01.783Z,20.33
2023-02-19T00:29:17.140Z,20.63
2023-02-19T00:29:31.226Z,18.17
2023-02-19T00:29:44.301Z,16.55
2023-02-19T00:29:57.351Z,16.40
2023-02-19T00:30:11.124Z,15.43
2023-02-19T00:30:24.181Z,15.73
2023-02-19T00:30:37.135Z,15.27
2023-02-19T00:30:50.344Z,17.35
2023-02-19T00:31:09.527Z,18.38
2023-02-19T00:31:25.061Z,16.08
2023-02-19T00:31:38.293Z,14.98
2023-02-19T00:31:51.373Z,13.10
2023-02-19T00:32:05.117Z,13.65
2023-02-19T00:32:19.238Z,15.65
2023-02-19T00:32:32.463Z,15.15
2023-02-19T00:32:51.411Z,13.75
2023-02-19T00:33:04.384Z,16.42
2023-02-19T00:33:17.425Z,17.38
2023-02-19T00:33:30.428Z,14.23
2023-02-19T00:33:44.105Z,13.65
2023-02-19T00:33:59.898Z,13.00
2023-02-19T00:34:13.771Z,12.57
2023-02-19T00:34:26.860Z,11.98
2023-02-19T00:34:39.811Z,11.35
2023-02-19T00:34:53.182Z,11.55
2023-02-19T00:35:06.663Z,11.10
2023-02-19T00:35:19.638Z,11.60
2023-02-19T00:35:35.346Z,11.88
2023-02-19T00:35:48.409Z,10.30
2023-02-19T00:36:02.728Z,9.40
2023-02-19T00:36:16.593Z,10.52
2023-02-19T00:36:30.869Z,11.70
2023-02-19T00:36:45.885Z,10.02
2023-02-19T00:36:58.989Z,9.25
2023-02-19T00:37:12.155Z,12.50
2023-02-19T00:37:25.185Z,14.45
2023-02-19T00:37:38.269Z,12.90
2023-02-19T00:37:51.311Z,11.52
2023-02-19T00:38:07.810Z,10.70
2023-02-19T00:38:37.317Z,10.68
2023-02-19T00:39:05.813Z,11.05
2023-02-19T00:39:35.691Z,11.30
2023-02-19T00:39:58.812Z,11.95
2023-02-19T00:40:11.606Z,13.35
2023-02-19T00:40:26.092Z,14.90
2023-02-19T00:40:39.271Z,14.52
2023-02-19T00:40:51.878Z,12.48
2023-02-19T00:41:19.000Z,12.02
2023-02-19T00:41:33.253Z,16.42
2023-02-19T00:41:46.472Z,17.00
2023-02-19T00:42:00.822Z,17.42
2023-02-19T00:42:13.411Z,18.88
2023-02-19T00:42:26.168Z,19.23
2023-02-19T00:42:38.816Z,16.90
2023-02-19T00:42:51.382Z,12.68
2023-02-19T00:43:04.949Z,11.25
2023-02-19T00:43:19.165Z,12.18
2023-02-19T00:43:31.723Z,10.88
2023-02-19T00:43:44.276Z,9.10
2023-02-19T00:43:58.634Z,8.85
2023-02-19T00:44:12.236Z,10.10
2023-02-19T00:44:25.788Z,11.18
2023-02-19T00:44:38.360Z,11.48
2023-02-19T00:44:50.912Z,11.98
2023-02-19T00:45:03.712Z,10.80
2023-02-19T00:45:16.356Z,10.10
2023-02-19T00:45:28.950Z,10.68
2023-02-19T00:45:41.558Z,11.73
2023-02-19T00:45:55.210Z,11.80
2023-02-19T00:46:08.385Z,11.52
2023-02-19T00:46:23.412Z,10.63
2023-02-19T00:46:38.209Z,11.38
2023-02-19T00:46:51.808Z,12.35
2023-02-19T00:47:04.744Z,12.13
2023-02-19T00:47:17.322Z,10.80
2023-02-19T00:47:29.999Z,9.07
2023-02-19T00:47:42.585Z,10.38
2023-02-19T00:47:55.121Z,10.15
2023-02-19T00:48:07.666Z,10.85
2023-02-19T00:48:20.234Z,11.38
2023-02-19T00:48:33.781Z,11.43
2023-02-19T00:48:46.732Z,9.95
2023-02-19T00:48:59.640Z,9.25
2023-02-19T00:49:17.055Z,9.68
2023-02-19T00:49:29.630Z,9.32
2023-02-19T00:49:43.198Z,8.77
2023-02-19T00:49:55.747Z,8.88
2023-02-19T00:50:08.649Z,9.80
2023-02-19T00:50:21.260Z,8.93
2023-02-19T00:50:33.855Z,8.15
2023-02-19T00:50:46.429Z,12.27
2023-02-19T00:50:58.997Z,11.88
2023-02-19T00:51:12.122Z,12.00
2023-02-19T00:51:27.319Z,10.68
2023-02-19T00:51:40.927Z,10.88
2023-02-19T00:51:53.622Z,11.05
2023-02-19T00:52:06.363Z,11.13
2023-02-19T00:52:18.944Z,8.70
2023-02-19T00:52:31.653Z,7.85
2023-02-19T00:52:44.238Z,8.45
2023-02-19T00:52:56.820Z,8.50
2023-02-19T00:53:10.400Z,10.50
2023-02-19T00:53:23.020Z,12.02
2023-02-19T00:53:35.591Z,12.52
2023-02-19T00:53:48.555Z,11.82
2023-02-19T00:54:01.408Z,11.05
2023-02-19T00:54:14.539Z,9.88
2023-02-19T00:54:28.110Z,9.70
2023-02-19T00:54:40.910Z,10.15
2023-02-19T00:54:53.522Z,11.05
2023-02-19T00:55:06.624Z,10.95
2023-02-19T00:55:19.218Z,10.05
2023-02-19T00:55:31.797Z,8.75
2023-02-19T00:55:44.330Z,10.05
2023-02-19T00:55:57.884Z,10.93
2023-02-19T00:56:10.806Z,9.52
2023-02-19T00:56:23.514Z,10.18
2023-02-19T00:56:36.267Z,10.40
2023-02-19T00:56:49.323Z,9.00
2023-02-19T00:57:02.004Z,8.98
2023-02-19T00:57:15.532Z,9.80
2023-02-19T00:57:28.165Z,10.25
2023-02-19T00:57:40.744Z,11.55
2023-02-19T00:57:53.302Z,12.98
2023-02-19T00:58:05.898Z,12.82
2023-02-19T00:58:19.822Z,9.73
2023-02-19T00:58:33.010Z,8.35
2023-02-19T00:58:47.013Z,9.50
2023-02-19T00:58:59.925Z,9.35
2023-02-19T00:59:12.496Z,9.08
2023-02-19T00:59:25.061Z,8.38
2023-02-19T00:59:37.604Z,6.75
2023-02-19T00:59:50.188Z,10.88
2023-02-19T01:00:02.848Z,12.65
2023-02-19T01:00:16.717Z,11.02
2023-02-19T01:00:29.240Z,9.40
2023-02-19T01:00:41.779Z,8.35
2023-02-19T01:00:54.322Z,12.95
2023-02-19T01:01:08.209Z,14.48
2023-02-19T01:01:21.440Z,10.13
2023-02-19T01:01:34.075Z,10.32
2023-02-19T01:01:47.736Z,11.10
2023-02-19T01:02:00.380Z,12.43
2023-02-19T01:02:12.995Z,13.80
2023-02-19T01:02:26.859Z,13.88
2023-02-19T01:02:39.400Z,11.02
2023-02-19T01:02:52.554Z,10.98
2023-02-19T01:03:05.093Z,11.50
2023-02-19T01:03:18.654Z,11.40
2023-02-19T01:03:31.298Z,10.68
2023-02-19T01:03:44.235Z,10.70
2023-02-19T01:03:56.881Z,12.70
2023-02-19T01:04:09.446Z,14.15
2023-02-19T01:04:22.979Z,14.82
2023-02-19T01:04:35.700Z,13.75
2023-02-19T01:04:48.561Z,12.35
2023-02-19T01:05:01.164Z,11.70
2023-02-19T01:05:13.735Z,12.02
2023-02-19T01:05:26.313Z,13.25
2023-02-19T01:05:38.883Z,12.65
2023-02-19T01:05:53.564Z,12.18
2023-02-19T01:06:08.825Z,12.23
2023-02-19T01:06:21.774Z,11.25
2023-02-19T01:06:35.340Z,10.55
2023-02-19T01:06:48.894Z,13.13
2023-02-19T01:07:01.551Z,14.48
2023-02-19T01:07:16.400Z,13.40
2023-02-19T01:07:28.975Z,10.65
2023-02-19T01:07:41.551Z,10.23
2023-02-19T01:07:54.093Z,10.07
2023-02-19T01:08:06.719Z,8.93
2023-02-19T01:08:19.553Z,9.02
2023-02-19T01:08:33.890Z,9.57
2023-02-19T01:08:47.274Z,10.07
2023-02-19T01:08:59.875Z,11.82
2023-02-19T01:09:12.526Z,13.10
2023-02-19T01:09:25.069Z,11.63
2023-02-19T01:09:39.120Z,10.48
2023-02-19T01:09:51.691Z,10.18
2023-02-19T01:10:04.979Z,12.73
2023-02-19T01:10:17.592Z,14.48
2023-02-19T01:10:30.143Z,11.95
2023-02-19T01:10:42.940Z,9.75
2023-02-19T01:10:56.777Z,9.60
2023-02-19T01:11:10.218Z,9.40
2023-02-19T01:11:23.091Z,11.90
2023-02-19T01:11:36.018Z,12.85
2023-02-19T01:11:48.613Z,14.15
2023-02-19T01:12:01.226Z,13.15
2023-02-19T01:12:14.789Z,11.93
2023-02-19T01:12:28.180Z,12.60
2023-02-19T01:12:40.754Z,13.68
2023-02-19T01:12:53.321Z,11.73
2023-02-19T01:13:05.933Z,12.13
2023-02-19T01:13:20.276Z,11.82
2023-02-19T01:13:34.061Z,11.95
2023-02-19T01:13:46.688Z,12.25
2023-02-19T01:14:01.036Z,15.52
2023-02-19T01:14:13.673Z,15.93
2023-02-19T01:14:26.553Z,15.18
2023-02-19T01:14:39.396Z,14.82
2023-02-19T01:14:51.977Z,14.55
2023-02-19T01:15:04.901Z,14.52
2023-02-19T01:15:17.647Z,16.98
2023-02-19T01:15:32.273Z,19.33
2023-02-19T01:15:45.543Z,17.48
2023-02-19T01:16:04.766Z,14.57
2023-02-19T01:16:19.950Z,12.18
2023-02-19T01:16:32.588Z,13.80
2023-02-19T01:16:45.206Z,14.02
2023-02-19T01:16:57.813Z,13.65
2023-02-19T01:17:10.365Z,14.13
2023-02-19T01:17:23.987Z,13.10
2023-02-19T01:17:36.805Z,13.32
2023-02-19T01:17:49.414Z,12.60
2023-02-19T01:18:02.187Z,13.50
2023-02-19T01:18:15.048Z,13.95
2023-02-19T01:18:27.605Z,12.43
2023-02-19T01:18:40.241Z,13.10
2023-02-19T01:18:53.773Z,13.25
2023-02-19T01:19:07.629Z,14.55
2023-02-19T01:19:20.185Z,14.85
2023-02-19T01:19:32.736Z,12.90
2023-02-19T01:19:45.285Z,9.77
2023-02-19T01:19:57.850Z,9.63
2023-02-19T01:20:10.703Z,12.05
2023-02-19T01:20:24.482Z,16.20
2023-02-19T01:20:38.993Z,15.95
2023-02-19T01:20:51.571Z,11.50
2023-02-19T01:21:07.194Z,8.32
2023-02-19T01:21:22.157Z,9.18
2023-02-19T01:21:34.777Z,10.88
2023-02-19T01:21:48.369Z,11.38
2023-02-19T01:22:00.967Z,10.35
2023-02-19T01:22:13.640Z,9.32
2023-02-19T01:22:26.278Z,8.80
2023-02-19T01:22:38.866Z,10.77
2023-02-19T01:22:51.697Z,14.27
2023-02-19T01:23:04.253Z,15.55
2023-02-19T01:23:17.787Z,11.75
2023-02-19T01:23:30.347Z,10.38
2023-02-19T01:23:44.235Z,11.07
2023-02-19T01:23:58.008Z,10.57
2023-02-19T01:24:10.856Z,10.15
2023-02-19T01:24:23.445Z,9.95
2023-02-19T01:24:36.010Z,10.40
2023-02-19T01:24:48.545Z,10.68
2023-02-19T01:25:01.181Z,10.43
2023-02-19T01:25:14.728Z,11.43
2023-02-19T01:25:27.330Z,11.30
2023-02-19T01:25:40.245Z,12.25
2023-02-19T01:25:52.858Z,10.90
2023-02-19T01:26:06.604Z,9.73
2023-02-19T01:26:20.951Z,9.48
2023-02-19T01:26:35.120Z,15.82
2023-02-19T01:26:47.947Z,14.95
2023-02-19T01:27:00.491Z,10.93
2023-02-19T01:27:13.088Z,11.98
2023-02-19T01:27:26.064Z,13.77
2023-02-19T01:27:38.639Z,13.48
2023-02-19T01:27:51.199Z,13.43
2023-02-19T01:28:04.998Z,13.75
2023-02-19T01:28:18.961Z,15.32
2023-02-19T01:28:31.521Z,14.25
2023-02-19T01:28:44.708Z,11.80
2023-02-19T01:28:57.599Z,13.52
2023-02-19T01:29:10.329Z,14.63
2023-02-19T01:29:23.879Z,13.55
2023-02-19T01:29:36.812Z,13.32
2023-02-19T01:29:49.365Z,13.75
2023-02-19T01:30:01.960Z,13.20
2023-02-19T01:30:14.941Z,12.13
2023-02-19T01:30:27.765Z,10.70
2023-02-19T01:30:40.565Z,10.98
2023-02-19T01:30:54.707Z,9.82
2023-02-19T01:31:13.545Z,10.50
2023-02-19T01:31:26.863Z,10.38
2023-02-19T01:31:42.222Z,8.57
2023-02-19T01:31:55.080Z,8.07
2023-02-19T01:32:07.809Z,10.07
2023-02-19T01:32:21.421Z,10.32
2023-02-19T01:32:34.012Z,10.77
2023-02-19T01:32:46.572Z,10.23
2023-02-19T01:32:59.109Z,10.88
2023-02-19T01:33:11.687Z,11.35
2023-02-19T01:33:24.342Z,11.13
2023-02-19T01:33:36.914Z,11.27
2023-02-19T01:33:51.977Z,10.55
2023-02-19T01:34:06.452Z,9.38
2023-02-19T01:34:19.038Z,10.70
2023-02-19T01:34:33.533Z,12.85
2023-02-19T01:34:46.417Z,11.95
2023-02-19T01:34:59.006Z,9.80
2023-02-19T01:35:11.585Z,9.18
2023-02-19T01:35:24.146Z,8.25
2023-02-19T01:35:40.683Z,9.57
2023-02-19T01:35:53.247Z,14.00
2023-02-19T01:36:07.224Z,13.77
2023-02-19T01:36:20.140Z,11.80
2023-02-19T01:36:34.490Z,10.40
2023-02-19T01:36:47.088Z,10.70
2023-02-19T01:37:00.699Z,11.48
2023-02-19T01:37:13.282Z,12.68
2023-02-19T01:37:25.853Z,13.00
2023-02-19T01:37:38.505Z,11.70
2023-02-19T01:37:51.096Z,11.88
2023-02-19T01:38:03.676Z,12.05
2023-02-19T01:38:16.234Z,12.73
2023-02-19T01:38:28.796Z,13.75
2023-02-19T01:38:41.573Z,12.88
2023-02-19T01:38:55.671Z,10.65
2023-02-19T01:39:08.461Z,9.88
2023-02-19T01:39:21.032Z,12.25
2023-02-19T01:39:33.592Z,11.45
2023-02-19T01:39:47.444Z,10.25
2023-02-19T01:40:00.020Z,10.23
2023-02-19T01:40:12.711Z,12.68
2023-02-19T01:40:26.731Z,11.60
2023-02-19T01:40:39.326Z,8.88
2023-02-19T01:40:56.493Z,9.13
2023-02-19T01:41:11.999Z,10.75
2023-02-19T01:41:26.375Z,11.48
2023-02-19T01:41:41.323Z,10.68
2023-02-19T01:41:54.903Z,10.00
2023-02-19T01:42:13.656Z,10.48
2023-02-19T01:42:26.220Z,9.73
2023-02-19T01:42:43.508Z,11.32
2023-02-19T01:42:56.182Z,13.65
2023-02-19T01:43:15.994Z,12.63
2023-02-19T01:43:33.669Z,13.80
2023-02-19T01:43:57.758Z,12.13
2023-02-19T01:44:49.101Z,10.82
2023-02-19T01:45:23.061Z,11.27
2023-02-19T01:45:38.286Z,7.57
2023-02-19T01:45:51.004Z,8.05
2023-02-19T01:46:03.749Z,8.80
2023-02-19T01:46:16.333Z,10.15
2023-02-19T01:46:30.672Z,11.30
2023-02-19T01:46:45.270Z,11.10
2023-02-19T01:46:58.797Z,11.88
2023-02-19T01:47:11.727Z,11.15
2023-02-19T01:47:24.444Z,11.60
2023-02-19T01:47:37.090Z,13.10
2023-02-19T01:47:55.891Z,13.20
2023-02-19T01:48:14.157Z,11.65
2023-02-19T01:48:29.858Z,10.27
2023-02-19T01:48:42.516Z,9.80
2023-02-19T01:48:58.339Z,10.13
2023-02-19T01:49:14.833Z,9.55
2023-02-19T01:49:31.234Z,11.45
2023-02-19T01:49:48.719Z,17.27
2023-02-19T01:50:01.345Z,11.80
2023-02-19T01:50:14.001Z,10.77
2023-02-19T01:50:29.002Z,10.27
2023-02-19T01:50:48.584Z,10.68
2023-02-19T01:51:06.772Z,12.20
2023-02-19T01:51:21.606Z,9.48
2023-02-19T01:51:36.764Z,9.68
2023-02-19T01:51:55.715Z,11.02
2023-02-19T01:52:14.490Z,10.57
2023-02-19T01:52:33.166Z,8.50
2023-02-19T01:52:46.073Z,7.65
2023-02-19T01:53:04.326Z,10.90
2023-02-19T01:53:21.760Z,11.02
2023-02-19T01:53:40.223Z,8.85
2023-02-19T01:53:57.600Z,10.73
2023-02-19T01:54:13.690Z,13.20
2023-02-19T01:54:30.172Z,11.70
2023-02-19T01:54:46.040Z,11.18
2023-02-19T01:55:01.455Z,11.82
2023-02-19T01:55:14.426Z,11.25
2023-02-19T01:55:28.017Z,11.75
2023-02-19T01:55:41.318Z,11.27
2023-02-19T01:55:58.848Z,11.00
2023-02-19T01:56:15.234Z,12.18
2023-02-19T01:56:29.149Z,12.32
2023-02-19T01:56:45.444Z,11.93
2023-02-19T01:56:59.480Z,10.80
2023-02-19T01:57:16.049Z,11.65
2023-02-19T01:57:32.140Z,13.07
2023-02-19T01:57:47.795Z,12.45
2023-02-19T01:58:01.918Z,13.30
2023-02-19T01:58:15.828Z,13.57
2023-02-19T01:58:34.700Z,13.23
2023-02-19T01:58:47.601Z,14.27
2023-02-19T01:59:01.827Z,15.27
2023-02-19T01:59:14.937Z,13.52
2023-02-19T01:59:27.543Z,13.43
2023-02-19T01:59:40.971Z,13.50
2023-02-19T01:59:56.606Z,13.48
2023-02-19T02:00:13.129Z,15.88
2023-02-19T02:00:26.272Z,15.05
2023-02-19T02:00:38.946Z,10.93
2023-02-19T02:00:51.906Z,17.52
2023-02-19T02:01:09.803Z,17.85
2023-02-19T02:01:22.709Z,14.38
2023-02-19T02:01:36.262Z,13.77
2023-02-19T02:01:49.423Z,12.38
2023-02-19T02:02:02.182Z,13.60
2023-02-19T02:02:14.846Z,12.85
2023-02-19T02:02:28.547Z,13.20
2023-02-19T02:02:43.975Z,13.50
2023-02-19T02:02:59.802Z,14.04
2023-02-19T02:03:12.941Z,13.02
2023-02-19T02:03:25.771Z,11.90
2023-02-19T02:03:40.786Z,11.52
2023-02-19T02:03:53.766Z,11.82
2023-02-19T02:04:07.962Z,11.35
2023-02-19T02:04:21.612Z,12.88
2023-02-19T02:04:34.737Z,13.60
2023-02-19T02:04:47.555Z,14.90
2023-02-19T02:05:00.842Z,14.60
2023-02-19T02:05:20.678Z,12.38
2023-02-19T02:05:44.062Z,14.38
2023-02-19T02:06:02.670Z,9.13
2023-02-19T02:06:21.501Z,13.82
2023-02-19T02:06:39.714Z,14.77
2023-02-19T02:06:53.975Z,12.82
2023-02-19T02:07:27.250Z,11.57
2023-02-19T02:07:58.112Z,10.45
2023-02-19T02:08:30.847Z,11.63
2023-02-19T02:09:07.265Z,12.40
2023-02-19T02:09:40.070Z,11.70
2023-02-19T02:10:20.727Z,11.18
2023-02-19T02:10:34.231Z,9.27
2023-02-19T02:10:47.933Z,9.38
2023-02-19T02:11:00.744Z,8.70
2023-02-19T02:11:13.725Z,8.55
2023-02-19T02:11:27.847Z,8.45
2023-02-19T02:11:45.246Z,9.50
2023-02-19T02:11:58.855Z,10.57
2023-02-19T02:12:12.804Z,9.20
2023-02-19T02:12:25.462Z,9.95
2023-02-19T02:12:38.037Z,11.07
2023-02-19T02:12:56.407Z,11.10
2023-02-19T02:13:09.144Z,11.70
2023-02-19T02:13:23.185Z,11.85
2023-02-19T02:13:39.007Z,10.90
2023-02-19T02:13:52.129Z,11.48
2023-02-19T02:14:05.148Z,12.57
2023-02-19T02:14:22.252Z,11.50
2023-02-19T02:14:38.744Z,14.50
2023-02-19T02:14:51.333Z,14.20
2023-02-19T02:15:04.768Z,10.82
2023-02-19T02:15:18.131Z,14.18
2023-02-19T02:15:40.122Z,14.50
2023-02-19T02:16:06.784Z,11.60
2023-02-19T02:16:26.525Z,11.45
2023-02-19T02:16:51.556Z,11.35
2023-02-19T02:17:16.379Z,13.30
2023-02-19T02:17:35.030Z,14.88
2023-02-19T02:17:56.660Z,15.55
2023-02-19T02:18:19.409Z,17.95
2023-02-19T02:18:43.225Z,14.73
2023-02-19T02:19:01.967Z,12.80
2023-02-19T02:19:32.197Z,13.50
2023-02-19T02:20:07.244Z,10.18
2023-02-19T02:20:32.574Z,13.73
2023-02-19T02:21:03.568Z,11.15
2023-02-19T02:21:36.653Z,13.52
2023-02-19T02:21:57.680Z,12.82
2023-02-19T02:22:18.087Z,11.23
2023-02-19T02:22:37.494Z,10.45
2023-02-19T02:23:00.837Z,10.65
2023-02-19T02:23:21.100Z,10.90
2023-02-19T02:23:46.838Z,12.93
2023-02-19T02:24:12.689Z,10.60
2023-02-19T02:24:51.173Z,11.38
2023-02-19T02:25:28.318Z,10.00
2023-02-19T02:25:58.991Z,13.13
2023-02-19T02:26:32.464Z,12.80
2023-02-19T02:27:04.290Z,13.27
2023-02-19T02:27:44.310Z,14.63
2023-02-19T02:28:12.995Z,13.50
2023-02-19T02:28:46.640Z,11.10
2023-02-19T02:29:20.080Z,10.57
2023-02-19T02:29:54.977Z,10.48
2023-02-19T02:30:22.980Z,12.27
2023-02-19T02:30:41.737Z,12.98
2023-02-19T02:30:57.553Z,12.90
2023-02-19T02:31:15.061Z,12.52
2023-02-19T02:31:32.069Z,11.52
2023-02-19T02:31:50.286Z,8.60
2023-02-19T02:32:07.163Z,11.73
2023-02-19T02:32:24.680Z,13.77
2023-02-19T02:32:43.298Z,13.65
2023-02-19T02:33:02.749Z,10.88
2023-02-19T02:33:26.436Z,11.60
2023-02-19T02:33:44.817Z,10.93
2023-02-19T02:34:04.762Z,10.85
2023-02-19T02:34:24.368Z,10.80
2023-02-19T02:34:42.123Z,12.50
2023-02-19T02:34:59.759Z,13.25
2023-02-19T02:35:19.287Z,11.32
2023-02-19T02:35:45.151Z,11.75
2023-02-19T02:36:03.211Z,10.15
2023-02-19T02:36:18.950Z,9.25
2023-02-19T02:36:35.906Z,9.18
2023-02-19T02:36:52.865Z,10.02
2023-02-19T02:37:08.184Z,11.02
2023-02-19T02:37:21.554Z,10.13
2023-02-19T02:37:38.343Z,9.65
2023-02-19T02:37:55.171Z,8.70
2023-02-19T02:38:12.047Z,9.70
2023-02-19T02:38:27.533Z,11.57
2023-02-19T02:38:43.360Z,12.30
2023-02-19T02:38:58.376Z,10.60
2023-02-19T02:39:16.933Z,9.75
2023-02-19T02:39:32.509Z,10.43
2023-02-19T02:39:47.017Z,13.23
2023-02-19T02:39:59.889Z,12.90
2023-02-19T02:40:12.808Z,10.45
2023-02-19T02:40:25.738Z,9.98
2023-02-19T02:40:43.475Z,9.98
2023-02-19T02:40:57.501Z,11.32
2023-02-19T02:41:11.899Z,10.05
2023-02-19T02:41:25.660Z,11.73
2023-02-19T02:41:43.571Z,14.10
2023-02-19T02:42:17.482Z,12.05
2023-02-19T02:42:30.149Z,12.77
2023-02-19T02:42:44.624Z,12.32
2023-02-19T02:42:58.009Z,12.48
2023-02-19T02:43:10.732Z,10.50
2023-02-19T02:43:23.911Z,10.25
2023-02-19T02:43:36.457Z,13.95
2023-02-19T02:43:49.014Z,13.38
2023-02-19T02:44:02.551Z,11.02
2023-02-19T02:44:15.134Z,9.40
2023-02-19T02:44:34.617Z,9.60
2023-02-19T02:45:03.396Z,11.00
2023-02-19T02:45:35.870Z,13.02
2023-02-19T02:45:48.857Z,12.55
2023-02-19T02:46:02.581Z,12.57
2023-02-19T02:46:21.585Z,13.32
2023-02-19T02:46:37.587Z,11.43
2023-02-19T02:46:50.186Z,11.55
2023-02-19T02:47:06.236Z,14.73
2023-02-19T02:47:33.673Z,18.23
2023-02-19T02:47:51.502Z,14.40
2023-02-19T02:48:12.566Z,17.95
2023-02-19T02:48:30.654Z,15.98
2023-02-19T02:48:53.727Z,17.45
2023-02-19T02:49:13.702Z,19.25
2023-02-19T02:49:26.972Z,16.25
2023-02-19T02:50:00.169Z,16.33
2023-02-19T02:50:19.244Z,18.55
2023-02-19T02:50:37.829Z,18.90
2023-02-19T02:50:56.120Z,17.95
2023-02-19T02:51:16.196Z,18.13
2023-02-19T02:51:32.240Z,19.55
2023-02-19T02:51:47.804Z,21.38
2023-02-19T02:52:22.244Z,19.38
2023-02-19T02:52:57.294Z,20.10
2023-02-19T02:53:32.884Z,26.90
2023-02-19T02:54:08.690Z,22.15
2023-02-19T02:54:44.762Z,25.98
2023-02-19T02:55:03.235Z,22.23
2023-02-19T02:55:16.705Z,21.30
2023-02-19T02:55:35.742Z,23.77
2023-02-19T02:55:52.143Z,25.67
2023-02-19T02:56:05.413Z,26.92
2023-02-19T02:56:19.714Z,26.15
2023-02-19T02:56:33.527Z,25.85
2023-02-19T02:56:48.203Z,25.60
2023-02-19T02:57:03.077Z,24.20
2023-02-19T02:57:17.169Z,21.08
2023-02-19T02:57:29.812Z,18.30
2023-02-19T02:57:43.016Z,18.65
2023-02-19T02:57:55.885Z,21.95
2023-02-19T02:58:09.780Z,20.55
2023-02-19T02:58:24.707Z,21.30
2023-02-19T02:58:39.110Z,20.95
2023-02-19T02:58:53.958Z,17.98
2023-02-19T02:59:10.088Z,19.17
2023-02-19T02:59:26.015Z,19.75
2023-02-19T02:59:39.810Z,16.40
2023-02-19T02:59:53.914Z,17.95
2023-02-19T03:00:08.652Z,18.35
2023-02-19T03:00:23.589Z,16.02
2023-02-19T03:00:53.193Z,17.20
2023-02-19T03:01:29.357Z,14.50
2023-02-19T03:02:05.003Z,16.88
2023-02-19T03:02:22.784Z,14.70
2023-02-19T03:02:36.954Z,12.75
2023-02-19T03:02:49.774Z,11.13
2023-02-19T03:03:02.380Z,10.70
2023-02-19T03:03:21.594Z,11.88
2023-02-19T03:03:38.624Z,13.05
2023-02-19T03:03:59.177Z,12.98
2023-02-19T03:04:20.107Z,11.56
2023-02-19T03:04:59.392Z,13.43
2023-02-19T03:05:45.460Z,11.45
2023-02-19T03:06:04.170Z,9.30
2023-02-19T03:06:21.260Z,10.38
2023-02-19T03:06:38.146Z,11.48
2023-02-19T03:06:52.062Z,11.43
2023-02-19T03:07:08.714Z,10.25
2023-02-19T03:07:21.362Z,10.65
2023-02-19T03:07:38.979Z,11.88
2023-02-19T03:07:56.242Z,12.82
2023-02-19T03:08:14.964Z,11.82
2023-02-19T03:08:31.286Z,9.77
2023-02-19T03:08:49.051Z,10.80
2023-02-19T03:09:09.375Z,11.40
2023-02-19T03:09:30.204Z,10.82
2023-02-19T03:09:45.268Z,10.30
2023-02-19T03:10:00.585Z,11.15
2023-02-19T03:10:17.440Z,11.55
2023-02-19T03:10:36.809Z,10.52
2023-02-19T03:10:56.112Z,9.77
2023-02-19T03:11:29.528Z,11.02
2023-02-19T03:12:05.236Z,15.82
2023-02-19T03:12:37.997Z,10.02
2023-02-19T03:13:12.294Z,11.10
2023-02-19T03:13:47.691Z,9.10
2023-02-19T03:14:26.184Z,11.23
2023-02-19T03:15:02.305Z,9.02
2023-02-19T03:15:35.413Z,13.88
2023-02-19T03:16:16.821Z,12.13
2023-02-19T03:16:53.346Z,11.15
2023-02-19T03:17:29.388Z,10.82
2023-02-19T03:18:05.543Z,12.68
2023-02-19T03:18:37.917Z,9.98
2023-02-19T03:19:24.077Z,14.65
2023-02-19T03:19:43.948Z,13.00
2023-02-19T03:20:01.338Z,14.27
2023-02-19T03:20:20.012Z,12.43
2023-02-19T03:20:36.680Z,11.18
2023-02-19T03:20:56.716Z,12.63
2023-02-19T03:21:11.337Z,15.48
2023-02-19T03:21:25.931Z,17.17
2023-02-19T03:21:41.816Z,15.35
2023-02-19T03:22:00.119Z,13.45
2023-02-19T03:22:19.990Z,13.23
2023-02-19T03:22:37.621Z,14.18
2023-02-19T03:22:52.218Z,14.98
2023-02-19T03:23:07.808Z,15.38
2023-02-19T03:23:42.120Z,14.13
2023-02-19T03:24:15.269Z,14.88
2023-02-19T03:24:50.633Z,14.07
2023-02-19T03:25:26.064Z,16.58
2023-02-19T03:25:58.656Z,12.70
2023-02-19T03:26:12.918Z,13.20
2023-02-19T03:26:26.495Z,16.38
2023-02-19T03:26:42.405Z,15.50
2023-02-19T03:27:02.420Z,13.45
2023-02-19T03:27:17.422Z,12.93
2023-02-19T03:27:33.701Z,14.20
2023-02-19T03:27:48.473Z,16.13
2023-02-19T03:28:03.614Z,14.23
2023-02-19T03:28:19.337Z,10.80
2023-02-19T03:28:53.716Z,11.80
2023-02-19T03:29:24.118Z,14.18
2023-02-19T03:29:39.525Z,9.63
2023-02-19T03:29:54.962Z,9.25
2023-02-19T03:30:11.978Z,11.77